createdAt,value
2023-03-19T00:00:27.091Z,79.94
2023-03-19T00:01:27.066Z,80.46
2023-03-19T00:02:27.066Z,80.60
2023-03-19T00:03:27.063Z,80.69
2023-03-19T00:04:27.034Z,81.01
2023-03-19T00:05:27.024Z,81.07
2023-03-19T00:06:27.055Z,81.07
2023-03-19T00:07:26.991Z,81.01
2023-03-19T00:08:27.036Z,80.56
2023-03-19T00:09:26.996Z,80.25
2023-03-19T00:10:27.002Z,80.05
2023-03-19T00:11:26.972Z,80.05
2023-03-19T00:12:27.057Z,80.15
2023-03-19T00:13:26.984Z,80.46
2023-03-19T00:14:26.938Z,79.94
2023-03-19T00:15:27.009Z,79.64
2023-03-19T00:16:26.929Z,79.64
2023-03-19T00:17:26.922Z,80.35
2023-03-19T00:18:26.902Z,80.49
2023-03-19T00:19:26.878Z,80.08
2023-03-19T00:20:26.893Z,80.08
2023-03-19T00:21:27.914Z,81.01
2023-03-19T00:22:26.900Z,80.90
2023-03-19T00:23:26.852Z,81.24
2023-03-19T00:24:26.849Z,81.10
2023-03-19T00:25:26.838Z,81.10
2023-03-19T00:26:26.816Z,81.45
2023-03-19T00:27:26.829Z,81.62
2023-03-19T00:28:26.792Z,81.45
2023-03-19T00:29:26.854Z,81.51
2023-03-19T00:30:26.817Z,81.51
2023-03-19T00:31:26.788Z,81.41
2023-03-19T00:32:26.761Z,82.07
2023-03-19T00:33:26.755Z,82.48
2023-03-19T00:34:26.736Z,82.27
2023-03-19T00:35:26.745Z,82.89
2023-03-19T00:36:26.723Z,82.78
2023-03-19T00:37:26.723Z,82.68
2023-03-19T00:38:26.738Z,82.75
2023-03-19T00:39:26.782Z,83.29
2023-03-19T00:40:26.688Z,82.84
2023-03-19T00:41:26.684Z,82.84
2023-03-19T00:42:26.676Z,82.98
2023-03-19T00:43:26.638Z,83.19
2023-03-19T00:44:26.639Z,83.66
2023-03-19T00:45:26.672Z,83.46
2023-03-19T00:46:26.696Z,83.05
2023-03-19T00:47:26.615Z,82.64
2023-03-19T00:48:26.579Z,82.89
2023-03-19T00:49:26.597Z,82.78
2023-03-19T00:50:26.671Z,82.78
2023-03-19T00:51:26.589Z,83.09
2023-03-19T00:52:26.550Z,82.98
2023-03-19T00:53:26.545Z,83.64
2023-03-19T00:54:26.558Z,84.05
2023-03-19T00:55:26.531Z,84.50
2023-03-19T00:56:26.538Z,84.39
2023-03-19T00:57:26.508Z,84.80
2023-03-19T00:58:26.495Z,84.36
2023-03-19T00:59:26.499Z,84.77
2023-03-19T01:00:26.491Z,83.84
2023-03-19T01:01:26.536Z,83.95
2023-03-19T01:02:26.458Z,84.05
2023-03-19T01:03:26.459Z,83.95
2023-03-19T01:04:26.500Z,84.15
2023-03-19T01:05:26.411Z,83.95
2023-03-19T01:06:26.423Z,84.25
2023-03-19T01:07:26.486Z,83.95
2023-03-19T01:08:26.403Z,83.84
2023-03-19T01:09:26.390Z,83.95
2023-03-19T01:10:26.384Z,84.15
2023-03-19T01:11:26.352Z,83.84
2023-03-19T01:12:26.345Z,83.95
2023-03-19T01:13:26.337Z,83.84
2023-03-19T01:14:26.365Z,84.46
2023-03-19T01:15:26.313Z,84.77
2023-03-19T01:16:26.315Z,83.74
2023-03-19T01:17:26.300Z,83.95
2023-03-19T01:18:26.283Z,84.01
2023-03-19T01:19:26.317Z,83.74
2023-03-19T01:20:26.330Z,84.05
2023-03-19T01:21:26.266Z,83.95
2023-03-19T01:22:26.266Z,84.01
2023-03-19T01:23:26.293Z,83.91
2023-03-19T01:24:26.261Z,84.11
2023-03-19T01:25:26.345Z,83.74
2023-03-19T01:26:26.253Z,83.95
2023-03-19T01:27:26.210Z,84.01
2023-03-19T01:28:26.197Z,84.15
2023-03-19T01:29:26.190Z,84.25
2023-03-19T01:30:26.182Z,83.70
2023-03-19T01:31:26.186Z,84.15
2023-03-19T01:32:26.199Z,83.91
2023-03-19T01:33:26.150Z,84.11
2023-03-19T01:34:26.142Z,83.44
2023-03-19T01:35:26.136Z,83.60
2023-03-19T01:36:26.109Z,83.23
2023-03-19T01:37:26.132Z,83.19
2023-03-19T01:38:26.118Z,83.33
2023-03-19T01:39:26.097Z,83.54
2023-03-19T01:40:26.088Z,83.54
2023-03-19T01:41:27.102Z,84.09
2023-03-19T01:42:26.066Z,83.98
2023-03-19T01:43:26.048Z,84.15
2023-03-19T01:44:26.131Z,83.88
2023-03-19T01:45:26.032Z,84.09
2023-03-19T01:46:26.062Z,84.09
2023-03-19T01:47:26.024Z,84.09
2023-03-19T01:48:26.064Z,84.09
2023-03-19T01:49:26.003Z,84.29
2023-03-19T01:50:58.936Z,83.98
2023-03-19T01:51:25.979Z,84.15
2023-03-19T01:52:25.947Z,84.15
2023-03-19T01:53:25.952Z,84.46
2023-03-19T01:54:25.957Z,84.05
2023-03-19T01:55:25.921Z,83.98
2023-03-19T01:56:25.925Z,84.05
2023-03-19T01:57:25.920Z,84.09
2023-03-19T01:58:26.106Z,83.98
2023-03-19T01:59:25.892Z,84.19
2023-03-19T02:00:25.897Z,83.98
2023-03-19T02:01:25.882Z,84.91
2023-03-19T02:02:25.853Z,84.80
2023-03-19T02:03:25.900Z,84.80
2023-03-19T02:04:25.850Z,84.46
2023-03-19T02:05:25.881Z,83.98
2023-03-19T02:06:25.809Z,83.98
2023-03-19T02:07:25.804Z,84.05
2023-03-19T02:08:25.785Z,84.05
2023-03-19T02:09:25.802Z,83.88
2023-03-19T02:10:25.777Z,84.19
2023-03-19T02:11:25.804Z,84.29
2023-03-19T02:12:25.741Z,84.36
2023-03-19T02:13:25.774Z,83.88
2023-03-19T02:14:25.808Z,83.98
2023-03-19T02:15:25.887Z,84.19
2023-03-19T02:16:25.791Z,84.46
2023-03-19T02:17:25.711Z,84.15
2023-03-19T02:18:25.773Z,83.78
2023-03-19T02:19:25.690Z,84.25
2023-03-19T02:20:25.723Z,84.15
2023-03-19T02:21:25.697Z,84.25
2023-03-19T02:22:25.672Z,84.36
2023-03-19T02:23:25.646Z,83.95
2023-03-19T02:24:25.642Z,83.95
2023-03-19T02:25:25.638Z,84.25
2023-03-19T02:26:25.645Z,84.50
2023-03-19T02:27:25.617Z,83.95
2023-03-19T02:28:25.604Z,84.36
2023-03-19T02:29:25.633Z,84.50
2023-03-19T02:30:25.586Z,85.01
2023-03-19T02:31:25.605Z,84.46
2023-03-19T02:32:25.576Z,84.46
2023-03-19T02:33:25.552Z,83.84
2023-03-19T02:34:25.569Z,83.84
2023-03-19T02:35:25.538Z,84.66
2023-03-19T02:36:25.517Z,83.95
2023-03-19T02:37:25.523Z,83.84
2023-03-19T02:38:25.535Z,83.95
2023-03-19T02:39:25.498Z,83.95
2023-03-19T02:40:25.511Z,84.05
2023-03-19T02:41:25.482Z,83.88
2023-03-19T02:42:25.505Z,84.15
2023-03-19T02:43:25.476Z,83.84
2023-03-19T02:44:25.445Z,84.25
2023-03-19T02:45:25.464Z,83.95
2023-03-19T02:46:25.550Z,83.95
2023-03-19T02:47:25.412Z,83.95
2023-03-19T02:48:25.501Z,84.36
2023-03-19T02:49:25.396Z,84.46
2023-03-19T02:50:25.427Z,84.46
2023-03-19T02:51:25.377Z,84.70
2023-03-19T02:52:25.372Z,84.97
2023-03-19T02:53:25.393Z,85.28
2023-03-19T02:54:25.347Z,84.39
2023-03-19T02:55:25.332Z,83.84
2023-03-19T02:56:25.344Z,84.09
2023-03-19T02:57:25.319Z,84.15
2023-03-19T02:58:25.313Z,83.88
2023-03-19T02:59:25.361Z,83.98
2023-03-19T03:00:25.288Z,84.50
2023-03-19T03:01:25.291Z,85.01
2023-03-19T03:02:25.385Z,85.31
2023-03-19T03:03:25.262Z,85.11
2023-03-19T03:04:25.276Z,85.22
2023-03-19T03:05:25.293Z,85.56
2023-03-19T03:06:25.239Z,85.77
2023-03-19T03:07:25.243Z,85.46
2023-03-19T03:08:25.235Z,85.42
2023-03-19T03:09:25.236Z,85.56
2023-03-19T03:10:25.206Z,85.66
2023-03-19T03:11:25.211Z,85.05
2023-03-19T03:12:25.188Z,84.23
2023-03-19T03:13:25.186Z,85.42
2023-03-19T03:14:25.172Z,85.25
2023-03-19T03:15:25.167Z,85.25
2023-03-19T03:16:25.205Z,85.15
2023-03-19T03:17:25.144Z,85.36
2023-03-19T03:18:25.160Z,85.56
2023-03-19T03:19:25.130Z,85.25
2023-03-19T03:20:25.115Z,85.87
2023-03-19T03:21:25.100Z,85.97
2023-03-19T03:22:25.113Z,86.18
2023-03-19T03:23:25.092Z,86.11
2023-03-19T03:24:25.086Z,85.80
2023-03-19T03:25:25.052Z,85.80
2023-03-19T03:26:25.065Z,85.77
2023-03-19T03:27:25.068Z,85.46
2023-03-19T03:28:25.062Z,86.07
2023-03-19T03:29:25.045Z,85.87
2023-03-19T03:30:25.018Z,84.95
2023-03-19T03:31:25.056Z,85.15
2023-03-19T03:32:24.987Z,84.84
2023-03-19T03:33:24.986Z,85.36
2023-03-19T03:34:25.008Z,85.91
2023-03-19T03:35:25.015Z,85.77
2023-03-19T03:36:24.965Z,85.46
2023-03-19T03:37:25.018Z,85.36
2023-03-19T03:38:24.934Z,85.25
2023-03-19T03:39:24.939Z,85.77
2023-03-19T03:40:24.926Z,85.46
2023-03-19T03:41:24.933Z,85.77
2023-03-19T03:42:24.903Z,85.87
2023-03-19T03:43:24.897Z,85.97
2023-03-19T03:44:25.888Z,86.07
2023-03-19T03:45:24.858Z,85.87
2023-03-19T03:46:24.916Z,85.87
2023-03-19T03:47:24.869Z,85.97
2023-03-19T03:48:24.887Z,86.38
2023-03-19T03:49:24.829Z,85.97
2023-03-19T03:50:24.845Z,87.10
2023-03-19T03:51:24.825Z,87.20
2023-03-19T03:52:24.796Z,86.83
2023-03-19T03:53:24.809Z,87.04
2023-03-19T03:54:24.789Z,86.93
2023-03-19T03:55:24.774Z,87.04
2023-03-19T03:56:24.762Z,86.69
2023-03-19T03:57:24.777Z,87.10
2023-03-19T03:58:24.764Z,86.99
2023-03-19T03:59:24.737Z,86.99
2023-03-19T04:00:24.762Z,86.69
2023-03-19T04:01:24.713Z,87.10
2023-03-19T04:02:24.776Z,86.99
2023-03-19T04:03:24.793Z,87.30
2023-03-19T04:04:24.679Z,87.10
2023-03-19T04:05:24.717Z,86.99
2023-03-19T04:06:24.666Z,87.30
2023-03-19T04:07:24.667Z,87.34
2023-03-19T04:08:24.661Z,86.99
2023-03-19T04:09:24.630Z,87.10
2023-03-19T04:10:24.607Z,87.30
2023-03-19T04:11:24.626Z,86.85
2023-03-19T04:12:24.588Z,86.85
2023-03-19T04:13:24.612Z,87.20
2023-03-19T04:14:24.579Z,86.96
2023-03-19T04:15:24.631Z,86.85
2023-03-19T04:16:24.600Z,87.16
2023-03-19T04:17:24.577Z,86.90
2023-03-19T04:18:24.579Z,86.65
2023-03-19T04:19:24.538Z,87.10
2023-03-19T04:20:24.531Z,87.20
2023-03-19T04:21:24.517Z,87.20
2023-03-19T04:22:24.505Z,87.16
2023-03-19T04:23:24.485Z,87.30
2023-03-19T04:24:24.577Z,87.30
2023-03-19T04:25:24.497Z,87.10
2023-03-19T04:26:24.474Z,87.20
2023-03-19T04:27:24.457Z,86.90
2023-03-19T04:28:24.448Z,86.90
2023-03-19T04:29:24.436Z,87.16
2023-03-19T04:30:24.459Z,87.10
2023-03-19T04:31:25.483Z,87.41
2023-03-19T04:32:24.410Z,87.51
2023-03-19T04:33:24.407Z,87.41
2023-03-19T04:34:24.394Z,87.41
2023-03-19T04:35:24.403Z,86.99
2023-03-19T04:36:24.398Z,86.69
2023-03-19T04:37:24.374Z,86.99
2023-03-19T04:38:24.352Z,87.20
2023-03-19T04:39:24.402Z,86.99
2023-03-19T04:40:24.336Z,86.99
2023-03-19T04:41:24.318Z,86.69
2023-03-19T04:42:24.313Z,86.69
2023-03-19T04:43:24.319Z,86.79
2023-03-19T04:44:24.310Z,86.83
2023-03-19T04:45:24.362Z,86.69
2023-03-19T04:46:24.317Z,86.99
2023-03-19T04:47:24.262Z,87.41
2023-03-19T04:48:24.255Z,87.41
2023-03-19T04:49:24.249Z,87.04
2023-03-19T04:50:24.268Z,87.51
2023-03-19T04:51:24.213Z,86.90
2023-03-19T04:52:24.209Z,87.10
2023-03-19T04:53:24.216Z,86.90
2023-03-19T04:54:24.216Z,87.51
2023-03-19T04:55:24.207Z,87.30
2023-03-19T04:56:24.169Z,87.20
2023-03-19T04:57:25.194Z,87.20
2023-03-19T04:58:24.156Z,87.41
2023-03-19T04:59:24.160Z,86.99
2023-03-19T05:00:24.133Z,87.10
2023-03-19T05:01:24.151Z,86.99
2023-03-19T05:02:24.117Z,87.45
2023-03-19T05:03:24.101Z,87.51
2023-03-19T05:04:24.134Z,87.24
2023-03-19T05:05:24.085Z,87.20
2023-03-19T05:06:24.068Z,87.51
2023-03-19T05:07:25.093Z,87.41
2023-03-19T05:08:24.053Z,87.41
2023-03-19T05:09:24.066Z,87.41
2023-03-19T05:10:24.053Z,87.51
2023-03-19T05:11:24.026Z,87.51
2023-03-19T05:12:24.038Z,87.20
2023-03-19T05:13:24.000Z,87.20
2023-03-19T05:14:23.989Z,87.30
2023-03-19T05:15:24.995Z,87.51
2023-03-19T05:16:23.983Z,87.41
2023-03-19T05:17:23.982Z,87.61
2023-03-19T05:18:23.974Z,87.51
2023-03-19T05:19:23.951Z,87.41
2023-03-19T05:20:23.918Z,87.96
2023-03-19T05:21:24.932Z,87.82
2023-03-19T05:22:23.948Z,87.85
2023-03-19T05:23:23.930Z,87.65
2023-03-19T05:24:23.908Z,87.96
2023-03-19T05:25:23.908Z,88.37
2023-03-19T05:26:23.913Z,88.17
2023-03-19T05:27:23.883Z,88.37
2023-03-19T05:28:23.865Z,88.37
2023-03-19T05:29:23.846Z,88.17
2023-03-19T05:30:23.852Z,88.06
2023-03-19T05:31:23.854Z,88.06
2023-03-19T05:32:23.833Z,87.96
2023-03-19T05:33:23.808Z,87.85
2023-03-19T05:34:23.819Z,87.96
2023-03-19T05:35:23.866Z,88.21
2023-03-19T05:36:23.768Z,88.37
2023-03-19T05:37:23.794Z,88.51
2023-03-19T05:38:23.754Z,88.68
2023-03-19T05:39:23.779Z,88.27
2023-03-19T05:40:23.744Z,87.96
2023-03-19T05:41:23.764Z,88.17
2023-03-19T05:42:23.730Z,88.27
2023-03-19T05:43:23.722Z,87.92
2023-03-19T05:44:23.723Z,87.96
2023-03-19T05:45:23.700Z,88.06
2023-03-19T05:46:23.694Z,87.85
2023-03-19T05:47:23.669Z,87.96
2023-03-19T05:48:23.673Z,87.30
2023-03-19T05:49:23.672Z,87.41
2023-03-19T05:50:23.658Z,87.65
2023-03-19T05:51:23.634Z,87.65
2023-03-19T05:52:23.622Z,87.10
2023-03-19T05:53:23.619Z,87.76
2023-03-19T05:54:23.642Z,87.10
2023-03-19T05:55:23.615Z,87.30
2023-03-19T05:56:23.595Z,86.99
2023-03-19T05:57:23.576Z,86.69
2023-03-19T05:58:23.593Z,86.69
2023-03-19T05:59:23.585Z,87.06
2023-03-19T06:00:23.548Z,86.90
2023-03-19T06:01:23.566Z,87.10
2023-03-19T06:02:23.601Z,86.18
2023-03-19T06:03:23.640Z,85.93
2023-03-19T06:04:23.548Z,85.93
2023-03-19T06:05:23.511Z,85.83
2023-03-19T06:06:23.490Z,85.46
2023-03-19T06:07:23.471Z,85.97
2023-03-19T06:08:23.513Z,85.77
2023-03-19T06:09:23.462Z,85.97
2023-03-19T06:10:23.460Z,86.18
2023-03-19T06:11:23.466Z,85.77
2023-03-19T06:12:23.435Z,86.48
2023-03-19T06:13:23.420Z,86.38
2023-03-19T06:14:23.434Z,86.58
2023-03-19T06:15:23.389Z,85.87
2023-03-19T06:16:24.419Z,86.34
2023-03-19T06:17:23.386Z,85.97
2023-03-19T06:18:23.376Z,85.72
2023-03-19T06:19:23.359Z,85.72
2023-03-19T06:20:23.352Z,85.83
2023-03-19T06:21:23.330Z,86.04
2023-03-19T06:22:24.332Z,85.97
2023-03-19T06:23:23.345Z,85.77
2023-03-19T06:24:23.391Z,85.97
2023-03-19T06:25:23.298Z,86.14
2023-03-19T06:26:23.297Z,86.55
2023-03-19T06:27:23.313Z,85.72
2023-03-19T06:28:23.282Z,85.97
2023-03-19T06:29:23.268Z,86.04
2023-03-19T06:30:23.290Z,85.72
2023-03-19T06:31:23.297Z,85.93
2023-03-19T06:32:23.290Z,86.04
2023-03-19T06:33:23.236Z,86.04
2023-03-19T06:34:23.211Z,85.93
2023-03-19T06:35:23.402Z,86.04
2023-03-19T06:36:23.206Z,85.83
2023-03-19T06:37:23.215Z,85.72
2023-03-19T06:38:23.193Z,85.83
2023-03-19T06:39:23.188Z,85.25
2023-03-19T06:40:23.179Z,85.66
2023-03-19T06:41:23.216Z,85.83
2023-03-19T06:42:23.250Z,85.63
2023-03-19T06:43:23.147Z,85.77
2023-03-19T06:44:23.144Z,85.87
2023-03-19T06:45:23.106Z,85.97
2023-03-19T06:46:23.189Z,85.93
2023-03-19T06:47:23.105Z,85.93
2023-03-19T06:48:23.103Z,85.93
2023-03-19T06:49:23.064Z,86.04
2023-03-19T06:50:23.104Z,85.83
2023-03-19T06:51:23.042Z,86.04
2023-03-19T06:52:23.064Z,85.52
2023-03-19T06:53:23.057Z,85.42
2023-03-19T06:54:23.020Z,85.11
2023-03-19T06:55:23.065Z,85.22
2023-03-19T06:56:22.994Z,84.19
2023-03-19T06:57:22.995Z,85.11
2023-03-19T06:58:23.024Z,85.56
2023-03-19T06:59:22.993Z,85.97
2023-03-19T07:00:22.974Z,86.07
2023-03-19T07:01:23.043Z,85.97
2023-03-19T07:02:22.966Z,85.87
2023-03-19T07:03:23.007Z,87.10
2023-03-19T07:04:23.041Z,86.90
2023-03-19T07:05:22.920Z,87.20
2023-03-19T07:06:22.907Z,87.10
2023-03-19T07:07:22.963Z,86.48
2023-03-19T07:08:22.883Z,86.58
2023-03-19T07:09:22.884Z,85.72
2023-03-19T07:10:22.874Z,86.07
2023-03-19T07:11:22.854Z,85.83
2023-03-19T07:12:22.905Z,86.04
2023-03-19T07:13:22.835Z,85.63
2023-03-19T07:14:22.854Z,85.72
2023-03-19T07:15:22.835Z,85.83
2023-03-19T07:16:22.837Z,85.31
2023-03-19T07:17:22.796Z,85.42
2023-03-19T07:18:22.840Z,85.48
2023-03-19T07:19:22.779Z,85.11
2023-03-19T07:20:22.773Z,84.77
2023-03-19T07:21:22.764Z,85.48
2023-03-19T07:22:22.754Z,85.52
2023-03-19T07:23:23.752Z,85.22
2023-03-19T07:24:22.732Z,85.52
2023-03-19T07:25:22.717Z,86.04
2023-03-19T07:26:22.708Z,85.83
2023-03-19T07:27:22.726Z,85.89
2023-03-19T07:28:22.752Z,85.63
2023-03-19T07:29:22.711Z,85.48
2023-03-19T07:30:22.665Z,85.58
2023-03-19T07:31:22.799Z,85.58
2023-03-19T07:32:22.674Z,85.93
2023-03-19T07:33:22.746Z,86.34
2023-03-19T07:34:22.616Z,87.06
2023-03-19T07:35:23.667Z,86.96
2023-03-19T07:36:22.628Z,86.75
2023-03-19T07:37:22.722Z,86.85
2023-03-19T07:38:23.606Z,87.16
2023-03-19T07:39:22.605Z,85.93
2023-03-19T07:40:22.596Z,85.89
2023-03-19T07:41:22.565Z,86.20
2023-03-19T07:42:22.549Z,86.26
2023-03-19T07:43:22.555Z,85.85
2023-03-19T07:44:22.559Z,85.64
2023-03-19T07:45:22.556Z,85.50
2023-03-19T07:46:22.519Z,84.79
2023-03-19T07:47:28.975Z,85.10
2023-03-19T07:48:24.514Z,83.76
2023-03-19T07:49:22.497Z,83.83
2023-03-19T07:50:22.501Z,83.73
2023-03-19T07:51:54.383Z,83.01
2023-03-19T07:52:22.483Z,82.67
2023-03-19T07:53:22.464Z,82.67
2023-03-19T07:54:22.483Z,82.56
2023-03-19T07:55:22.456Z,82.26
2023-03-19T07:56:22.429Z,82.53
2023-03-19T07:57:22.445Z,82.42
2023-03-19T07:58:22.430Z,81.81
2023-03-19T07:59:22.441Z,82.01
2023-03-19T08:00:22.453Z,81.81
2023-03-19T08:01:22.420Z,81.71
2023-03-19T08:02:23.299Z,81.81
2023-03-19T08:03:23.407Z,82.46
2023-03-19T08:04:22.382Z,82.22
2023-03-19T08:05:22.512Z,82.42
2023-03-19T08:06:22.390Z,82.12
2023-03-19T08:07:22.367Z,82.93
2023-03-19T08:08:22.340Z,82.32
2023-03-19T08:09:22.330Z,82.12
2023-03-19T08:10:22.432Z,82.39
2023-03-19T08:11:22.335Z,82.39
2023-03-19T08:12:22.356Z,82.08
2023-03-19T08:13:22.282Z,81.46
2023-03-19T08:14:22.344Z,80.91
2023-03-19T08:15:22.244Z,80.82
2023-03-19T08:16:22.310Z,80.78
2023-03-19T08:17:22.260Z,80.88
2023-03-19T08:18:22.250Z,79.82
2023-03-19T08:19:22.233Z,79.38
2023-03-19T08:20:22.228Z,78.77
2023-03-19T08:21:22.246Z,77.71
2023-03-19T08:22:22.186Z,76.86
2023-03-19T08:23:22.194Z,76.76
2023-03-19T08:24:22.242Z,75.87
2023-03-19T08:25:22.165Z,75.26
2023-03-19T08:26:22.149Z,74.41
2023-03-19T08:27:22.178Z,74.88
2023-03-19T08:28:22.145Z,74.14
2023-03-19T08:29:22.140Z,71.80
2023-03-19T08:30:22.119Z,71.50
2023-03-19T08:31:22.114Z,72.17
2023-03-19T08:32:22.091Z,72.17
2023-03-19T08:33:22.077Z,72.08
2023-03-19T08:34:22.088Z,70.83
2023-03-19T08:35:22.063Z,70.83
2023-03-19T08:36:22.080Z,69.71
2023-03-19T08:37:22.038Z,69.81
2023-03-19T08:38:22.049Z,69.81
2023-03-19T08:39:22.054Z,69.91
2023-03-19T08:40:22.028Z,69.27
2023-03-19T08:41:22.005Z,69.78
2023-03-19T08:42:22.150Z,68.96
2023-03-19T08:43:22.185Z,69.17
2023-03-19T08:44:22.015Z,69.68
2023-03-19T08:45:21.972Z,69.00
2023-03-19T08:46:22.081Z,68.70
2023-03-19T08:47:21.971Z,69.10
2023-03-19T08:48:21.946Z,68.32
2023-03-19T08:49:21.932Z,68.73
2023-03-19T08:50:21.922Z,68.96
2023-03-19T08:51:21.957Z,69.06
2023-03-19T08:52:21.909Z,69.37
2023-03-19T08:53:21.883Z,69.67
2023-03-19T08:54:23.056Z,69.95
2023-03-19T08:55:22.880Z,69.57
2023-03-19T08:56:21.852Z,69.57
2023-03-19T08:57:21.838Z,69.87
2023-03-19T08:58:21.902Z,69.60
2023-03-19T08:59:21.831Z,69.87
2023-03-19T09:00:21.816Z,70.04
2023-03-19T09:01:21.862Z,70.28
2023-03-19T09:02:21.808Z,69.98
2023-03-19T09:03:21.825Z,69.87
2023-03-19T09:04:21.801Z,69.78
2023-03-19T09:05:21.767Z,68.93
2023-03-19T09:06:21.767Z,68.76
2023-03-19T09:07:21.738Z,69.06
2023-03-19T09:08:21.733Z,68.83
2023-03-19T09:09:21.776Z,68.62
2023-03-19T09:10:21.758Z,68.70
2023-03-19T09:11:22.772Z,66.60
2023-03-19T09:12:21.698Z,66.60
2023-03-19T09:13:21.718Z,67.41
2023-03-19T09:14:21.754Z,67.58
2023-03-19T09:15:21.678Z,67.38
2023-03-19T09:16:21.806Z,65.34
2023-03-19T09:17:21.640Z,66.05
2023-03-19T09:18:21.686Z,65.04
2023-03-19T09:19:21.652Z,63.89
2023-03-19T09:20:21.657Z,64.00
2023-03-19T09:21:21.638Z,64.61
2023-03-19T09:22:21.600Z,64.07
2023-03-19T09:23:21.604Z,64.27
2023-03-19T09:24:21.574Z,63.83
2023-03-19T09:25:21.580Z,63.93
2023-03-19T09:26:21.591Z,63.73
2023-03-19T09:27:21.554Z,64.54
2023-03-19T09:28:21.555Z,63.93
2023-03-19T09:29:21.545Z,63.50
2023-03-19T09:30:21.506Z,64.11
2023-03-19T09:31:21.624Z,63.93
2023-03-19T09:32:21.524Z,64.04
2023-03-19T09:33:21.539Z,63.81
2023-03-19T09:34:21.483Z,64.21
2023-03-19T09:35:21.481Z,63.93
2023-03-19T09:36:21.490Z,63.66
2023-03-19T09:37:21.507Z,64.61
2023-03-19T09:38:21.436Z,65.42
2023-03-19T09:39:22.446Z,64.70
2023-03-19T09:40:21.576Z,65.72
2023-03-19T09:41:21.409Z,65.52
2023-03-19T09:42:21.436Z,65.18
2023-03-19T09:43:21.390Z,65.18
2023-03-19T09:44:21.379Z,63.93
2023-03-19T09:45:21.405Z,63.40
2023-03-19T09:46:22.834Z,63.98
2023-03-19T09:47:22.349Z,63.57
2023-03-19T09:48:21.354Z,61.85
2023-03-19T09:49:21.360Z,61.55
2023-03-19T09:50:21.406Z,61.72
2023-03-19T09:51:21.395Z,61.82
2023-03-19T09:52:21.351Z,61.52
2023-03-19T09:53:21.324Z,59.97
2023-03-19T09:54:21.318Z,60.48
2023-03-19T09:55:21.277Z,60.58
2023-03-19T09:56:21.271Z,60.68
2023-03-19T09:57:21.273Z,61.72
2023-03-19T09:58:21.279Z,61.21
2023-03-19T09:59:21.265Z,60.78
2023-03-19T10:00:21.414Z,61.36
2023-03-19T10:01:21.282Z,61.16
2023-03-19T10:02:21.207Z,60.88
2023-03-19T10:03:21.209Z,60.96
2023-03-19T10:04:21.230Z,60.55
2023-03-19T10:05:22.229Z,59.87
2023-03-19T10:06:21.180Z,61.69
2023-03-19T10:07:21.152Z,60.75
2023-03-19T10:08:21.254Z,60.85
2023-03-19T10:09:21.161Z,60.72
2023-03-19T10:10:21.184Z,60.93
2023-03-19T10:11:21.164Z,60.52
2023-03-19T10:12:21.113Z,59.21
2023-03-19T10:13:21.103Z,60.85
2023-03-19T10:14:21.113Z,60.85
2023-03-19T10:15:21.094Z,61.96
2023-03-19T10:16:21.137Z,60.85
2023-03-19T10:17:21.052Z,61.13
2023-03-19T10:18:21.061Z,60.39
2023-03-19T10:19:22.225Z,59.69
2023-03-19T10:20:21.047Z,59.81
2023-03-19T10:21:21.023Z,59.76
2023-03-19T10:22:21.047Z,58.58
2023-03-19T10:23:21.013Z,58.85
2023-03-19T10:24:21.040Z,58.45
2023-03-19T10:25:20.996Z,59.56
2023-03-19T10:26:20.993Z,58.34
2023-03-19T10:27:20.978Z,58.75
2023-03-19T10:28:20.963Z,59.12
2023-03-19T10:29:20.954Z,58.25
2023-03-19T10:30:20.954Z,57.89
2023-03-19T10:31:20.948Z,57.68
2023-03-19T10:32:20.943Z,57.15
2023-03-19T10:33:20.932Z,57.98
2023-03-19T10:34:20.932Z,58.01
2023-03-19T10:35:20.921Z,57.61
2023-03-19T10:36:20.900Z,58.01
2023-03-19T10:37:20.886Z,58.12
2023-03-19T10:38:20.875Z,57.71
2023-03-19T10:39:20.894Z,58.32
2023-03-19T10:40:20.851Z,56.81
2023-03-19T10:41:20.840Z,57.48
2023-03-19T10:42:20.816Z,57.35
2023-03-19T10:43:20.858Z,57.45
2023-03-19T10:44:20.834Z,57.45
2023-03-19T10:45:20.851Z,56.55
2023-03-19T10:46:20.800Z,55.01
2023-03-19T10:47:20.768Z,56.75
2023-03-19T10:48:20.761Z,55.34
2023-03-19T10:49:20.772Z,56.02
2023-03-19T10:50:20.779Z,56.17
2023-03-19T10:51:20.731Z,55.34
2023-03-19T10:52:20.733Z,56.45
2023-03-19T10:53:20.701Z,56.75
2023-03-19T10:54:20.714Z,56.35
2023-03-19T10:55:20.711Z,56.24
2023-03-19T10:56:21.680Z,56.65
2023-03-19T10:57:20.700Z,55.51
2023-03-19T10:58:20.676Z,56.24
2023-03-19T10:59:20.677Z,55.84
2023-03-19T11:00:20.654Z,56.17
2023-03-19T11:01:20.703Z,56.17
2023-03-19T11:02:20.685Z,56.27
2023-03-19T11:03:20.665Z,56.88
2023-03-19T11:04:20.606Z,57.28
2023-03-19T11:05:20.590Z,57.18
2023-03-19T11:06:20.606Z,56.95
2023-03-19T11:07:21.595Z,56.15
2023-03-19T11:08:34.928Z,55.91
2023-03-19T11:09:22.560Z,54.00
2023-03-19T11:10:20.565Z,54.81
2023-03-19T11:11:20.534Z,56.09
2023-03-19T11:12:20.526Z,54.79
2023-03-19T11:13:20.522Z,54.99
2023-03-19T11:14:20.540Z,55.31
2023-03-19T11:15:20.506Z,55.74
2023-03-19T11:16:20.543Z,56.35
2023-03-19T11:17:20.492Z,56.24
2023-03-19T11:18:20.495Z,56.17
2023-03-19T11:19:20.481Z,56.30
2023-03-19T11:20:20.440Z,56.63
2023-03-19T11:21:20.455Z,58.34
2023-03-19T11:22:21.176Z,57.61
2023-03-19T11:23:21.458Z,56.93
2023-03-19T11:24:20.410Z,58.12
2023-03-19T11:25:20.414Z,57.28
2023-03-19T11:26:20.387Z,56.37
2023-03-19T11:27:20.376Z,56.68
2023-03-19T11:28:22.078Z,56.98
2023-03-19T11:29:21.369Z,56.88
2023-03-19T11:30:20.372Z,55.97
2023-03-19T11:31:20.377Z,57.25
2023-03-19T11:32:22.027Z,56.75
2023-03-19T11:33:20.420Z,56.48
2023-03-19T11:34:20.314Z,56.17
2023-03-19T11:35:20.319Z,56.98
2023-03-19T11:36:20.320Z,56.68
2023-03-19T11:37:20.328Z,56.57
2023-03-19T11:38:20.306Z,56.27
2023-03-19T11:39:20.298Z,56.88
2023-03-19T11:40:20.277Z,56.37
2023-03-19T11:41:20.282Z,55.64
2023-03-19T11:42:20.270Z,56.22
2023-03-19T11:43:20.240Z,57.03
2023-03-19T11:44:20.256Z,56.40
2023-03-19T11:45:20.221Z,54.75
2023-03-19T11:46:20.215Z,54.75
2023-03-19T11:47:27.103Z,54.15
2023-03-19T11:48:22.188Z,54.08
2023-03-19T11:49:20.217Z,54.88
2023-03-19T11:50:20.172Z,55.11
2023-03-19T11:51:20.181Z,55.64
2023-03-19T11:52:20.185Z,56.04
2023-03-19T11:53:20.136Z,55.54
2023-03-19T11:54:20.128Z,55.46
2023-03-19T11:55:20.194Z,54.96
2023-03-19T11:56:20.112Z,56.07
2023-03-19T11:57:20.093Z,56.40
2023-03-19T11:58:20.097Z,55.79
2023-03-19T11:59:20.093Z,56.32
2023-03-19T12:00:20.106Z,56.63
2023-03-19T12:01:20.054Z,56.60
2023-03-19T12:02:20.108Z,57.34
2023-03-19T12:03:20.121Z,57.10
2023-03-19T12:04:20.039Z,57.54
2023-03-19T12:05:20.051Z,57.34
2023-03-19T12:06:20.014Z,57.03
2023-03-19T12:07:20.043Z,57.84
2023-03-19T12:08:20.025Z,57.84
2023-03-19T12:09:20.017Z,58.04
2023-03-19T12:10:19.974Z,58.65
2023-03-19T12:11:19.962Z,58.54
2023-03-19T12:12:19.963Z,58.04
2023-03-19T12:13:19.943Z,58.87
2023-03-19T12:14:19.926Z,59.08
2023-03-19T12:15:19.947Z,58.45
2023-03-19T12:16:19.968Z,59.96
2023-03-19T12:17:19.889Z,57.74
2023-03-19T12:18:20.015Z,58.14
2023-03-19T12:19:19.882Z,58.52
2023-03-19T12:20:19.890Z,56.73
2023-03-19T12:21:19.864Z,56.83
2023-03-19T12:22:19.924Z,56.63
2023-03-19T12:23:19.901Z,57.94
2023-03-19T12:24:19.859Z,57.54
2023-03-19T12:25:19.854Z,57.54
2023-03-19T12:26:19.846Z,57.14
2023-03-19T12:27:19.812Z,57.54
2023-03-19T12:28:19.876Z,58.25
2023-03-19T12:29:19.780Z,57.31
2023-03-19T12:30:19.812Z,57.31
2023-03-19T12:31:19.761Z,57.34
2023-03-19T12:32:19.754Z,57.14
2023-03-19T12:33:19.763Z,57.08
2023-03-19T12:34:19.744Z,56.57
2023-03-19T12:35:19.749Z,56.45
2023-03-19T12:36:19.816Z,56.75
2023-03-19T12:37:19.722Z,55.82
2023-03-19T12:38:19.681Z,54.81
2023-03-19T12:39:19.682Z,53.88
2023-03-19T12:40:19.688Z,53.78
2023-03-19T12:41:19.712Z,53.67
2023-03-19T12:42:19.679Z,54.35
2023-03-19T12:43:19.735Z,53.75
2023-03-19T12:44:19.643Z,52.54
2023-03-19T12:45:19.618Z,52.74
2023-03-19T12:46:19.624Z,52.54
2023-03-19T12:47:19.619Z,53.14
2023-03-19T12:48:19.607Z,53.32
2023-03-19T12:49:19.582Z,53.85
2023-03-19T12:50:19.595Z,53.45
2023-03-19T12:51:19.549Z,53.95
2023-03-19T12:52:19.559Z,54.28